sensor_id;sensor_type;location;lat;lon;timestamp;P1;durP1;ratioP1;P2;durP2;ratioP2
62997;SDS011;55949;52.590;7.330;2022-12-24T00:00:12;9.98;;;6.03;;
62997;SDS011;55949;52.590;7.330;2022-12-24T00:01:13;9.73;;;6.28;;
62997;SDS011;55949;52.590;7.330;2022-12-24T00:02:14;11.77;;;5.95;;
62997;SDS011;55949;52.590;7.330;2022-12-24T00:03:15;10.07;;;5.78;;
62997;SDS011;55949;52.590;7.330;2022-12-24T00:04:15;10.52;;;5.63;;
62997;SDS011;55949;52.590;7.330;2022-12-24T00:05:16;10.20;;;6.13;;
62997;SDS011;55949;52.590;7.330;2022-12-24T00:06:18;9.65;;;5.43;;
62997;SDS011;55949;52.590;7.330;2022-12-24T00:07:21;8.38;;;5.43;;
62997;SDS011;55949;52.590;7.330;2022-12-24T00:08:21;11.10;;;6.45;;
62997;SDS011;55949;52.590;7.330;2022-12-24T00:09:22;9.77;;;5.35;;
62997;SDS011;55949;52.590;7.330;2022-12-24T00:10:23;10.40;;;6.30;;
62997;SDS011;55949;52.590;7.330;2022-12-24T00:11:24;11.60;;;6.90;;
62997;SDS011;55949;52.590;7.330;2022-12-24T00:12:25;11.15;;;6.47;;
62997;SDS011;55949;52.590;7.330;2022-12-24T00:13:26;10.38;;;4.85;;
62997;SDS011;55949;52.590;7.330;2022-12-24T00:14:26;8.77;;;4.75;;
62997;SDS011;55949;52.590;7.330;2022-12-24T00:15:27;8.60;;;4.85;;
62997;SDS011;55949;52.590;7.330;2022-12-24T00:16:28;10.15;;;4.88;;
62997;SDS011;55949;52.590;7.330;2022-12-24T00:17:29;3.80;;;2.13;;
62997;SDS011;55949;52.590;7.330;2022-12-24T00:18:30;8.93;;;5.47;;
62997;SDS011;55949;52.590;7.330;2022-12-24T00:19:31;12.48;;;6.15;;
62997;SDS011;55949;52.590;7.330;2022-12-24T00:20:31;3.38;;;1.95;;
62997;SDS011;55949;52.590;7.330;2022-12-24T00:21:32;7.05;;;3.47;;
62997;SDS011;55949;52.590;7.330;2022-12-24T00:22:33;9.30;;;2.90;;
62997;SDS011;55949;52.590;7.330;2022-12-24T00:23:33;8.35;;;4.25;;
62997;SDS011;55949;52.590;7.330;2022-12-24T00:24:34;6.05;;;2.15;;
62997;SDS011;55949;52.590;7.330;2022-12-24T00:25:35;4.90;;;2.40;;
62997;SDS011;55949;52.590;7.330;2022-12-24T00:26:35;5.38;;;2.80;;
62997;SDS011;55949;52.590;7.330;2022-12-24T00:27:36;5.47;;;2.83;;
62997;SDS011;55949;52.590;7.330;2022-12-24T00:28:37;6.25;;;3.17;;
62997;SDS011;55949;52.590;7.330;2022-12-24T00:29:38;4.95;;;3.00;;
62997;SDS011;55949;52.590;7.330;2022-12-24T00:30:39;8.40;;;2.75;;
62997;SDS011;55949;52.590;7.330;2022-12-24T00:31:41;12.30;;;4.00;;
62997;SDS011;55949;52.590;7.330;2022-12-24T00:32:42;5.80;;;2.90;;
62997;SDS011;55949;52.590;7.330;2022-12-24T00:33:44;3.88;;;1.73;;
62997;SDS011;55949;52.590;7.330;2022-12-24T00:34:49;5.43;;;1.85;;
62997;SDS011;55949;52.590;7.330;2022-12-24T00:35:50;5.07;;;2.08;;
62997;SDS011;55949;52.590;7.330;2022-12-24T00:36:51;8.57;;;2.53;;
62997;SDS011;55949;52.590;7.330;2022-12-24T00:37:52;4.80;;;1.83;;
62997;SDS011;55949;52.590;7.330;2022-12-24T00:38:53;1.85;;;1.33;;
62997;SDS011;55949;52.590;7.330;2022-12-24T00:39:53;4.68;;;1.45;;
62997;SDS011;55949;52.590;7.330;2022-12-24T00:41:01;4.57;;;1.90;;
62997;SDS011;55949;52.590;7.330;2022-12-24T00:42:03;3.03;;;1.02;;
62997;SDS011;55949;52.590;7.330;2022-12-24T00:43:04;7.05;;;2.20;;
62997;SDS011;55949;52.590;7.330;2022-12-24T00:44:05;4.40;;;2.25;;
62997;SDS011;55949;52.590;7.330;2022-12-24T00:45:09;2.72;;;1.08;;
62997;SDS011;55949;52.590;7.330;2022-12-24T00:46:10;3.03;;;1.70;;
62997;SDS011;55949;52.590;7.330;2022-12-24T00:47:11;6.93;;;2.05;;
62997;SDS011;55949;52.590;7.330;2022-12-24T00:48:12;3.15;;;2.03;;
62997;SDS011;55949;52.590;7.330;2022-12-24T00:49:13;3.05;;;2.22;;
62997;SDS011;55949;52.590;7.330;2022-12-24T00:50:14;5.75;;;2.38;;
62997;SDS011;55949;52.590;7.330;2022-12-24T00:51:15;9.30;;;2.03;;
62997;SDS011;55949;52.590;7.330;2022-12-24T00:52:16;6.43;;;1.60;;
62997;SDS011;55949;52.590;7.330;2022-12-24T00:53:17;4.03;;;2.08;;
62997;SDS011;55949;52.590;7.330;2022-12-24T00:54:18;3.70;;;1.85;;
62997;SDS011;55949;52.590;7.330;2022-12-24T00:55:18;3.78;;;1.55;;
62997;SDS011;55949;52.590;7.330;2022-12-24T00:56:19;2.78;;;1.50;;
62997;SDS011;55949;52.590;7.330;2022-12-24T00:57:21;7.75;;;2.30;;
62997;SDS011;55949;52.590;7.330;2022-12-24T00:58:21;7.55;;;2.83;;
62997;SDS011;55949;52.590;7.330;2022-12-24T00:59:22;5.15;;;2.13;;
62997;SDS011;55949;52.590;7.330;2022-12-24T01:00:23;5.47;;;2.15;;
62997;SDS011;55949;52.590;7.330;2022-12-24T01:01:24;9.30;;;3.10;;
62997;SDS011;55949;52.590;7.330;2022-12-24T01:02:25;6.40;;;2.33;;
62997;SDS011;55949;52.590;7.330;2022-12-24T01:03:26;3.90;;;1.60;;
62997;SDS011;55949;52.590;7.330;2022-12-24T01:06:16;3.78;;;1.83;;
62997;SDS011;55949;52.590;7.330;2022-12-24T01:07:18;4.18;;;1.50;;
62997;SDS011;55949;52.590;7.330;2022-12-24T01:08:19;3.95;;;1.48;;
62997;SDS011;55949;52.590;7.330;2022-12-24T01:09:20;2.28;;;1.02;;
62997;SDS011;55949;52.590;7.330;2022-12-24T01:10:21;1.40;;;1.00;;
62997;SDS011;55949;52.590;7.330;2022-12-24T01:11:25;1.35;;;0.80;;
62997;SDS011;55949;52.590;7.330;2022-12-24T01:12:25;5.35;;;1.30;;
62997;SDS011;55949;52.590;7.330;2022-12-24T01:13:26;5.10;;;1.10;;
62997;SDS011;55949;52.590;7.330;2022-12-24T01:14:27;0.88;;;0.70;;
62997;SDS011;55949;52.590;7.330;2022-12-24T01:15:28;4.25;;;1.05;;
62997;SDS011;55949;52.590;7.330;2022-12-24T01:16:29;5.80;;;1.20;;
62997;SDS011;55949;52.590;7.330;2022-12-24T01:17:30;1.52;;;0.80;;
62997;SDS011;55949;52.590;7.330;2022-12-24T01:18:32;1.88;;;1.05;;
62997;SDS011;55949;52.590;7.330;2022-12-24T01:19:32;1.63;;;0.60;;
62997;SDS011;55949;52.590;7.330;2022-12-24T01:20:33;1.65;;;0.90;;
62997;SDS011;55949;52.590;7.330;2022-12-24T01:21:34;3.17;;;0.80;;
62997;SDS011;55949;52.590;7.330;2022-12-24T01:22:35;2.22;;;0.57;;
62997;SDS011;55949;52.590;7.330;2022-12-24T01:23:35;2.13;;;0.85;;
62997;SDS011;55949;52.590;7.330;2022-12-24T01:24:36;5.85;;;2.35;;
62997;SDS011;55949;52.590;7.330;2022-12-24T01:25:39;1.48;;;0.70;;
62997;SDS011;55949;52.590;7.330;2022-12-24T01:26:40;4.80;;;0.88;;
62997;SDS011;55949;52.590;7.330;2022-12-24T01:27:41;2.83;;;1.00;;
62997;SDS011;55949;52.590;7.330;2022-12-24T01:28:41;3.88;;;1.45;;
62997;SDS011;55949;52.590;7.330;2022-12-24T01:29:42;2.90;;;1.23;;
62997;SDS011;55949;52.590;7.330;2022-12-24T01:30:43;2.33;;;1.30;;
62997;SDS011;55949;52.590;7.330;2022-12-24T01:31:43;4.55;;;1.27;;
62997;SDS011;55949;52.590;7.330;2022-12-24T01:32:44;4.43;;;1.98;;
62997;SDS011;55949;52.590;7.330;2022-12-24T01:33:45;5.32;;;1.70;;
62997;SDS011;55949;52.590;7.330;2022-12-24T01:34:47;4.22;;;2.50;;
62997;SDS011;55949;52.590;7.330;2022-12-24T01:35:48;5.15;;;1.85;;
62997;SDS011;55949;52.590;7.330;2022-12-24T01:36:49;4.65;;;2.05;;
62997;SDS011;55949;52.590;7.330;2022-12-24T01:37:50;3.63;;;1.75;;
62997;SDS011;55949;52.590;7.330;2022-12-24T01:38:50;9.57;;;2.63;;
62997;SDS011;55949;52.590;7.330;2022-12-24T01:39:51;7.05;;;2.70;;
62997;SDS011;55949;52.590;7.330;2022-12-24T01:41:16;3.28;;;1.15;;
62997;SDS011;55949;52.590;7.330;2022-12-24T01:42:37;6.32;;;2.03;;
62997;SDS011;55949;52.590;7.330;2022-12-24T01:43:56;3.65;;;1.55;;
62997;SDS011;55949;52.590;7.330;2022-12-24T01:45:21;13.27;;;3.05;;
62997;SDS011;55949;52.590;7.330;2022-12-24T01:46:41;9.20;;;1.80;;
62997;SDS011;55949;52.590;7.330;2022-12-24T01:47:42;10.82;;;3.20;;
62997;SDS011;55949;52.590;7.330;2022-12-24T01:48:44;6.18;;;2.15;;
62997;SDS011;55949;52.590;7.330;2022-12-24T01:49:59;12.82;;;2.67;;
62997;SDS011;55949;52.590;7.330;2022-12-24T01:52:16;9.88;;;1.70;;
62997;SDS011;55949;52.590;7.330;2022-12-24T01:53:23;6.55;;;1.50;;
62997;SDS011;55949;52.590;7.330;2022-12-24T01:54:34;7.93;;;2.28;;
62997;SDS011;55949;52.590;7.330;2022-12-24T01:55:39;5.00;;;1.83;;
62997;SDS011;55949;52.590;7.330;2022-12-24T01:56:45;16.95;;;3.55;;
62997;SDS011;55949;52.590;7.330;2022-12-24T01:58:54;5.80;;;1.38;;
62997;SDS011;55949;52.590;7.330;2022-12-24T02:00:04;5.25;;;1.15;;
62997;SDS011;55949;52.590;7.330;2022-12-24T02:01:09;14.57;;;2.58;;
62997;SDS011;55949;52.590;7.330;2022-12-24T02:02:10;10.50;;;2.00;;
62997;SDS011;55949;52.590;7.330;2022-12-24T02:03:12;15.18;;;2.13;;
62997;SDS011;55949;52.590;7.330;2022-12-24T02:06:41;6.70;;;1.95;;
62997;SDS011;55949;52.590;7.330;2022-12-24T02:07:42;5.18;;;1.35;;
62997;SDS011;55949;52.590;7.330;2022-12-24T02:08:43;12.45;;;2.50;;
62997;SDS011;55949;52.590;7.330;2022-12-24T02:09:44;8.93;;;2.95;;
62997;SDS011;55949;52.590;7.330;2022-12-24T02:10:48;8.95;;;2.17;;
62997;SDS011;55949;52.590;7.330;2022-12-24T02:11:50;12.63;;;2.85;;
62997;SDS011;55949;52.590;7.330;2022-12-24T02:12:51;6.68;;;2.08;;
62997;SDS011;55949;52.590;7.330;2022-12-24T02:13:54;7.15;;;1.75;;
62997;SDS011;55949;52.590;7.330;2022-12-24T02:14:58;10.50;;;1.80;;
62997;SDS011;55949;52.590;7.330;2022-12-24T02:18:38;18.52;;;3.45;;
62997;SDS011;55949;52.590;7.330;2022-12-24T02:20:17;14.27;;;2.97;;
62997;SDS011;55949;52.590;7.330;2022-12-24T02:30:47;17.55;;;2.63;;
62997;SDS011;55949;52.590;7.330;2022-12-24T02:31:57;18.35;;;3.50;;
62997;SDS011;55949;52.590;7.330;2022-12-24T02:34:27;13.27;;;2.45;;
62997;SDS011;55949;52.590;7.330;2022-12-24T02:36:18;19.15;;;3.13;;
62997;SDS011;55949;52.590;7.330;2022-12-24T02:37:09;12.38;;;3.10;;
62997;SDS011;55949;52.590;7.330;2022-12-24T02:38:29;17.27;;;3.17;;
62997;SDS011;55949;52.590;7.330;2022-12-24T02:39:38;20.45;;;3.35;;
62997;SDS011;55949;52.590;7.330;2022-12-24T02:40:52;6.45;;;1.85;;
62997;SDS011;55949;52.590;7.330;2022-12-24T02:41:58;13.23;;;2.75;;
62997;SDS011;55949;52.590;7.330;2022-12-24T02:43:12;10.07;;;2.70;;
62997;SDS011;55949;52.590;7.330;2022-12-24T02:44:17;11.88;;;2.22;;
62997;SDS011;55949;52.590;7.330;2022-12-24T02:45:21;8.85;;;2.38;;
62997;SDS011;55949;52.590;7.330;2022-12-24T02:46:27;10.10;;;2.00;;
62997;SDS011;55949;52.590;7.330;2022-12-24T02:47:31;10.55;;;2.17;;
62997;SDS011;55949;52.590;7.330;2022-12-24T02:48:33;21.23;;;3.33;;
62997;SDS011;55949;52.590;7.330;2022-12-24T02:49:36;16.17;;;2.70;;
62997;SDS011;55949;52.590;7.330;2022-12-24T02:51:02;14.60;;;2.95;;
62997;SDS011;55949;52.590;7.330;2022-12-24T02:52:05;12.18;;;2.42;;
62997;SDS011;55949;52.590;7.330;2022-12-24T02:53:08;16.30;;;2.08;;
62997;SDS011;55949;52.590;7.330;2022-12-24T02:54:10;24.23;;;3.00;;
62997;SDS011;55949;52.590;7.330;2022-12-24T02:55:22;11.90;;;1.92;;
62997;SDS011;55949;52.590;7.330;2022-12-24T02:57:19;16.02;;;2.78;;
62997;SDS011;55949;52.590;7.330;2022-12-24T02:59:19;19.30;;;3.55;;
62997;SDS011;55949;52.590;7.330;2022-12-24T03:07:53;11.23;;;1.85;;
62997;SDS011;55949;52.590;7.330;2022-12-24T03:09:05;11.25;;;2.40;;
62997;SDS011;55949;52.590;7.330;2022-12-24T03:11:23;2.63;;;0.98;;
62997;SDS011;55949;52.590;7.330;2022-12-24T03:12:35;6.15;;;0.95;;
62997;SDS011;55949;52.590;7.330;2022-12-24T03:13:43;14.27;;;2.20;;
62997;SDS011;55949;52.590;7.330;2022-12-24T03:14:44;8.23;;;1.35;;
62997;SDS011;55949;52.590;7.330;2022-12-24T03:15:48;7.47;;;1.88;;
62997;SDS011;55949;52.590;7.330;2022-12-24T03:16:50;17.08;;;2.95;;
62997;SDS011;55949;52.590;7.330;2022-12-24T03:17:52;8.43;;;2.22;;
62997;SDS011;55949;52.590;7.330;2022-12-24T03:18:56;15.50;;;1.90;;
62997;SDS011;55949;52.590;7.330;2022-12-24T03:19:59;12.43;;;1.80;;
62997;SDS011;55949;52.590;7.330;2022-12-24T03:21:05;14.27;;;2.38;;
62997;SDS011;55949;52.590;7.330;2022-12-24T03:22:16;12.00;;;3.40;;
62997;SDS011;55949;52.590;7.330;2022-12-24T03:23:17;16.13;;;2.33;;
62997;SDS011;55949;52.590;7.330;2022-12-24T03:24:18;13.25;;;3.00;;
62997;SDS011;55949;52.590;7.330;2022-12-24T03:25:19;11.35;;;2.90;;
62997;SDS011;55949;52.590;7.330;2022-12-24T03:26:23;14.73;;;2.20;;
62997;SDS011;55949;52.590;7.330;2022-12-24T03:27:26;13.55;;;2.28;;
62997;SDS011;55949;52.590;7.330;2022-12-24T03:28:29;22.08;;;3.15;;
62997;SDS011;55949;52.590;7.330;2022-12-24T03:29:30;17.85;;;2.92;;
62997;SDS011;55949;52.590;7.330;2022-12-24T03:30:32;8.30;;;1.42;;
62997;SDS011;55949;52.590;7.330;2022-12-24T03:31:46;18.13;;;2.38;;
62997;SDS011;55949;52.590;7.330;2022-12-24T03:32:49;11.32;;;2.00;;
62997;SDS011;55949;52.590;7.330;2022-12-24T03:33:50;11.18;;;1.60;;
62997;SDS011;55949;52.590;7.330;2022-12-24T03:34:51;16.85;;;2.70;;
62997;SDS011;55949;52.590;7.330;2022-12-24T03:35:52;15.15;;;2.40;;
62997;SDS011;55949;52.590;7.330;2022-12-24T03:36:52;19.67;;;1.98;;
62997;SDS011;55949;52.590;7.330;2022-12-24T03:37:53;17.63;;;3.28;;
62997;SDS011;55949;52.590;7.330;2022-12-24T03:38:55;11.98;;;1.75;;
62997;SDS011;55949;52.590;7.330;2022-12-24T03:39:56;9.23;;;1.30;;
62997;SDS011;55949;52.590;7.330;2022-12-24T03:40:57;18.25;;;3.00;;
62997;SDS011;55949;52.590;7.330;2022-12-24T03:41:58;6.90;;;1.92;;
62997;SDS011;55949;52.590;7.330;2022-12-24T03:42:59;12.70;;;2.08;;
62997;SDS011;55949;52.590;7.330;2022-12-24T03:44:00;12.93;;;2.03;;
62997;SDS011;55949;52.590;7.330;2022-12-24T03:45:00;4.72;;;1.35;;
62997;SDS011;55949;52.590;7.330;2022-12-24T03:46:05;16.02;;;2.00;;
62997;SDS011;55949;52.590;7.330;2022-12-24T03:47:06;13.70;;;2.08;;
62997;SDS011;55949;52.590;7.330;2022-12-24T03:48:07;13.27;;;2.10;;
62997;SDS011;55949;52.590;7.330;2022-12-24T03:49:08;16.33;;;2.25;;
62997;SDS011;55949;52.590;7.330;2022-12-24T03:50:09;11.20;;;2.03;;
62997;SDS011;55949;52.590;7.330;2022-12-24T03:51:16;13.27;;;2.78;;
62997;SDS011;55949;52.590;7.330;2022-12-24T03:52:18;6.00;;;1.55;;
62997;SDS011;55949;52.590;7.330;2022-12-24T03:53:19;7.47;;;1.48;;
62997;SDS011;55949;52.590;7.330;2022-12-24T03:54:20;18.08;;;4.28;;
62997;SDS011;55949;52.590;7.330;2022-12-24T03:55:21;6.18;;;1.30;;
62997;SDS011;55949;52.590;7.330;2022-12-24T03:56:23;26.08;;;3.17;;
62997;SDS011;55949;52.590;7.330;2022-12-24T03:57:24;9.35;;;1.98;;
62997;SDS011;55949;52.590;7.330;2022-12-24T03:58:24;23.23;;;3.60;;
62997;SDS011;55949;52.590;7.330;2022-12-24T03:59:25;22.30;;;3.67;;
62997;SDS011;55949;52.590;7.330;2022-12-24T04:00:26;12.80;;;2.80;;
62997;SDS011;55949;52.590;7.330;2022-12-24T04:01:27;8.68;;;1.70;;
62997;SDS011;55949;52.590;7.330;2022-12-24T04:02:28;15.27;;;1.90;;
62997;SDS011;55949;52.590;7.330;2022-12-24T04:03:28;5.68;;;1.85;;
62997;SDS011;55949;52.590;7.330;2022-12-24T04:04:29;13.30;;;2.45;;
62997;SDS011;55949;52.590;7.330;2022-12-24T04:05:32;17.45;;;3.22;;
62997;SDS011;55949;52.590;7.330;2022-12-24T04:06:33;8.95;;;1.92;;
62997;SDS011;55949;52.590;7.330;2022-12-24T04:07:34;15.27;;;2.03;;
62997;SDS011;55949;52.590;7.330;2022-12-24T04:08:36;19.10;;;3.42;;
62997;SDS011;55949;52.590;7.330;2022-12-24T04:09:42;11.85;;;1.95;;
62997;SDS011;55949;52.590;7.330;2022-12-24T04:10:43;11.05;;;2.10;;
62997;SDS011;55949;52.590;7.330;2022-12-24T04:11:43;9.98;;;1.42;;
62997;SDS011;55949;52.590;7.330;2022-12-24T04:12:44;18.10;;;3.25;;
62997;SDS011;55949;52.590;7.330;2022-12-24T04:13:45;11.68;;;2.47;;
62997;SDS011;55949;52.590;7.330;2022-12-24T04:14:46;14.43;;;3.03;;
62997;SDS011;55949;52.590;7.330;2022-12-24T04:15:58;12.95;;;1.45;;
62997;SDS011;55949;52.590;7.330;2022-12-24T04:17:00;20.05;;;2.85;;
62997;SDS011;55949;52.590;7.330;2022-12-24T04:18:01;16.60;;;2.75;;
62997;SDS011;55949;52.590;7.330;2022-12-24T04:19:02;17.25;;;3.42;;
62997;SDS011;55949;52.590;7.330;2022-12-24T04:20:03;7.70;;;0.95;;
62997;SDS011;55949;52.590;7.330;2022-12-24T04:21:04;25.33;;;3.08;;
62997;SDS011;55949;52.590;7.330;2022-12-24T04:22:06;14.52;;;2.10;;
62997;SDS011;55949;52.590;7.330;2022-12-24T04:23:07;27.45;;;3.35;;
62997;SDS011;55949;52.590;7.330;2022-12-24T04:24:07;20.20;;;2.67;;
62997;SDS011;55949;52.590;7.330;2022-12-24T04:25:08;14.45;;;2.35;;
62997;SDS011;55949;52.590;7.330;2022-12-24T04:26:10;22.75;;;3.30;;
62997;SDS011;55949;52.590;7.330;2022-12-24T04:27:14;13.55;;;1.88;;
62997;SDS011;55949;52.590;7.330;2022-12-24T04:28:16;16.98;;;3.28;;
62997;SDS011;55949;52.590;7.330;2022-12-24T04:29:17;23.42;;;3.28;;
62997;SDS011;55949;52.590;7.330;2022-12-24T04:30:18;14.23;;;3.67;;
62997;SDS011;55949;52.590;7.330;2022-12-24T04:31:19;17.67;;;2.72;;
62997;SDS011;55949;52.590;7.330;2022-12-24T04:32:23;17.15;;;3.35;;
62997;SDS011;55949;52.590;7.330;2022-12-24T04:33:27;12.63;;;2.70;;
62997;SDS011;55949;52.590;7.330;2022-12-24T04:34:28;17.85;;;2.90;;
62997;SDS011;55949;52.590;7.330;2022-12-24T04:35:28;16.20;;;3.75;;
62997;SDS011;55949;52.590;7.330;2022-12-24T04:36:29;20.08;;;3.83;;
62997;SDS011;55949;52.590;7.330;2022-12-24T04:37:32;21.42;;;3.28;;
62997;SDS011;55949;52.590;7.330;2022-12-24T04:38:33;13.68;;;2.08;;
62997;SDS011;55949;52.590;7.330;2022-12-24T04:39:34;13.68;;;2.65;;
62997;SDS011;55949;52.590;7.330;2022-12-24T04:40:35;18.15;;;2.72;;
62997;SDS011;55949;52.590;7.330;2022-12-24T04:41:36;7.05;;;1.98;;
62997;SDS011;55949;52.590;7.330;2022-12-24T04:42:36;16.55;;;3.65;;
62997;SDS011;55949;52.590;7.330;2022-12-24T04:43:37;23.85;;;3.33;;
62997;SDS011;55949;52.590;7.330;2022-12-24T04:44:38;10.90;;;2.75;;
62997;SDS011;55949;52.590;7.330;2022-12-24T04:45:39;12.82;;;2.00;;
62997;SDS011;55949;52.590;7.330;2022-12-24T04:46:39;11.82;;;2.67;;
62997;SDS011;55949;52.590;7.330;2022-12-24T04:47:41;19.52;;;3.22;;
62997;SDS011;55949;52.590;7.330;2022-12-24T04:48:42;10.70;;;2.78;;
62997;SDS011;55949;52.590;7.330;2022-12-24T04:49:43;17.52;;;2.70;;
62997;SDS011;55949;52.590;7.330;2022-12-24T04:50:43;14.30;;;2.10;;
62997;SDS011;55949;52.590;7.330;2022-12-24T04:51:44;16.52;;;2.65;;
62997;SDS011;55949;52.590;7.330;2022-12-24T04:52:45;18.17;;;2.63;;
62997;SDS011;55949;52.590;7.330;2022-12-24T04:53:45;21.15;;;3.50;;
62997;SDS011;55949;52.590;7.330;2022-12-24T04:54:46;10.90;;;2.50;;
62997;SDS011;55949;52.590;7.330;2022-12-24T04:55:47;23.02;;;3.42;;
62997;SDS011;55949;52.590;7.330;2022-12-24T04:56:47;12.38;;;2.13;;
62997;SDS011;55949;52.590;7.330;2022-12-24T04:57:48;13.23;;;2.47;;
62997;SDS011;55949;52.590;7.330;2022-12-24T04:58:49;15.82;;;2.92;;
62997;SDS011;55949;52.590;7.330;2022-12-24T04:59:50;12.75;;;1.48;;
62997;SDS011;55949;52.590;7.330;2022-12-24T05:00:51;21.77;;;2.53;;
62997;SDS011;55949;52.590;7.330;2022-12-24T05:01:52;21.27;;;2.60;;
62997;SDS011;55949;52.590;7.330;2022-12-24T05:02:53;14.75;;;2.42;;
62997;SDS011;55949;52.590;7.330;2022-12-24T05:03:54;13.32;;;3.40;;
62997;SDS011;55949;52.590;7.330;2022-12-24T05:04:55;20.35;;;3.08;;
62997;SDS011;55949;52.590;7.330;2022-12-24T05:06:05;22.08;;;2.72;;
62997;SDS011;55949;52.590;7.330;2022-12-24T05:07:08;19.95;;;2.92;;
62997;SDS011;55949;52.590;7.330;2022-12-24T05:08:09;31.50;;;5.20;;
62997;SDS011;55949;52.590;7.330;2022-12-24T05:09:09;6.55;;;2.00;;
62997;SDS011;55949;52.590;7.330;2022-12-24T05:10:10;22.65;;;2.90;;
62997;SDS011;55949;52.590;7.330;2022-12-24T05:11:11;29.67;;;3.58;;
62997;SDS011;55949;52.590;7.330;2022-12-24T05:12:14;19.35;;;3.45;;
62997;SDS011;55949;52.590;7.330;2022-12-24T05:13:15;22.02;;;3.88;;
62997;SDS011;55949;52.590;7.330;2022-12-24T05:14:15;28.27;;;4.43;;
62997;SDS011;55949;52.590;7.330;2022-12-24T05:15:16;22.85;;;3.33;;
62997;SDS011;55949;52.590;7.330;2022-12-24T05:16:17;8.60;;;2.50;;
62997;SDS011;55949;52.590;7.330;2022-12-24T05:17:20;21.50;;;3.03;;
62997;SDS011;55949;52.590;7.330;2022-12-24T05:18:21;29.70;;;3.85;;
62997;SDS011;55949;52.590;7.330;2022-12-24T05:19:21;16.35;;;2.38;;
62997;SDS011;55949;52.590;7.330;2022-12-24T05:20:22;16.70;;;3.10;;
62997;SDS011;55949;52.590;7.330;2022-12-24T05:21:23;25.60;;;4.28;;
62997;SDS011;55949;52.590;7.330;2022-12-24T05:22:24;20.73;;;3.30;;
62997;SDS011;55949;52.590;7.330;2022-12-24T05:23:43;13.82;;;2.75;;
62997;SDS011;55949;52.590;7.330;2022-12-24T05:25:03;23.13;;;2.95;;
62997;SDS011;55949;52.590;7.330;2022-12-24T05:26:41;19.05;;;3.90;;
62997;SDS011;55949;52.590;7.330;2022-12-24T05:27:42;17.48;;;2.42;;
62997;SDS011;55949;52.590;7.330;2022-12-24T05:28:43;19.38;;;1.92;;
62997;SDS011;55949;52.590;7.330;2022-12-24T05:29:44;21.90;;;3.67;;
62997;SDS011;55949;52.590;7.330;2022-12-24T05:30:45;13.35;;;3.55;;
62997;SDS011;55949;52.590;7.330;2022-12-24T05:31:45;18.75;;;2.95;;
62997;SDS011;55949;52.590;7.330;2022-12-24T05:32:47;21.95;;;3.53;;
62997;SDS011;55949;52.590;7.330;2022-12-24T05:33:48;13.65;;;2.90;;
62997;SDS011;55949;52.590;7.330;2022-12-24T05:34:49;15.48;;;2.65;;
62997;SDS011;55949;52.590;7.330;2022-12-24T05:35:50;28.65;;;4.15;;
62997;SDS011;55949;52.590;7.330;2022-12-24T05:36:51;18.42;;;2.95;;
62997;SDS011;55949;52.590;7.330;2022-12-24T05:37:56;27.13;;;3.50;;
62997;SDS011;55949;52.590;7.330;2022-12-24T05:38:57;23.35;;;3.55;;
62997;SDS011;55949;52.590;7.330;2022-12-24T05:39:58;17.40;;;2.40;;
62997;SDS011;55949;52.590;7.330;2022-12-24T05:40:59;13.13;;;2.72;;
62997;SDS011;55949;52.590;7.330;2022-12-24T05:42:00;22.83;;;3.38;;
62997;SDS011;55949;52.590;7.330;2022-12-24T05:43:00;21.42;;;2.28;;
62997;SDS011;55949;52.590;7.330;2022-12-24T05:44:01;15.82;;;2.63;;
62997;SDS011;55949;52.590;7.330;2022-12-24T05:45:02;23.63;;;2.83;;
62997;SDS011;55949;52.590;7.330;2022-12-24T05:46:04;16.30;;;2.85;;
62997;SDS011;55949;52.590;7.330;2022-12-24T05:47:07;20.60;;;3.20;;
62997;SDS011;55949;52.590;7.330;2022-12-24T05:48:08;17.38;;;2.83;;
62997;SDS011;55949;52.590;7.330;2022-12-24T05:49:08;15.85;;;2.10;;
62997;SDS011;55949;52.590;7.330;2022-12-24T05:50:09;21.63;;;2.88;;
62997;SDS011;55949;52.590;7.330;2022-12-24T05:51:11;22.92;;;3.55;;
62997;SDS011;55949;52.590;7.330;2022-12-24T05:52:13;16.10;;;3.20;;
62997;SDS011;55949;52.590;7.330;2022-12-24T05:53:13;21.48;;;4.45;;
62997;SDS011;55949;52.590;7.330;2022-12-24T05:54:14;20.20;;;3.97;;
62997;SDS011;55949;52.590;7.330;2022-12-24T05:55:15;15.43;;;2.70;;
62997;SDS011;55949;52.590;7.330;2022-12-24T05:56:19;24.55;;;3.08;;
62997;SDS011;55949;52.590;7.330;2022-12-24T05:57:22;19.08;;;3.63;;
62997;SDS011;55949;52.590;7.330;2022-12-24T05:58:23;19.52;;;2.45;;
62997;SDS011;55949;52.590;7.330;2022-12-24T05:59:24;21.02;;;3.63;;
62997;SDS011;55949;52.590;7.330;2022-12-24T06:00:24;14.15;;;2.80;;
62997;SDS011;55949;52.590;7.330;2022-12-24T06:01:25;27.38;;;3.10;;
62997;SDS011;55949;52.590;7.330;2022-12-24T06:02:26;16.40;;;3.55;;
62997;SDS011;55949;52.590;7.330;2022-12-24T06:03:27;21.48;;;4.03;;
62997;SDS011;55949;52.590;7.330;2022-12-24T06:04:28;19.77;;;3.08;;
62997;SDS011;55949;52.590;7.330;2022-12-24T06:05:29;17.10;;;4.18;;
62997;SDS011;55949;52.590;7.330;2022-12-24T06:06:30;20.40;;;3.15;;
62997;SDS011;55949;52.590;7.330;2022-12-24T06:07:30;19.15;;;2.92;;
62997;SDS011;55949;52.590;7.330;2022-12-24T06:08:31;22.60;;;3.33;;
62997;SDS011;55949;52.590;7.330;2022-12-24T06:09:33;24.90;;;3.85;;
62997;SDS011;55949;52.590;7.330;2022-12-24T06:10:33;24.15;;;3.17;;
62997;SDS011;55949;52.590;7.330;2022-12-24T06:11:34;12.07;;;2.58;;
62997;SDS011;55949;52.590;7.330;2022-12-24T06:12:35;25.67;;;3.03;;
62997;SDS011;55949;52.590;7.330;2022-12-24T06:13:35;20.08;;;3.55;;
62997;SDS011;55949;52.590;7.330;2022-12-24T06:14:36;20.90;;;3.78;;
62997;SDS011;55949;52.590;7.330;2022-12-24T06:15:37;24.23;;;5.00;;
62997;SDS011;55949;52.590;7.330;2022-12-24T06:16:38;24.33;;;3.95;;
62997;SDS011;55949;52.590;7.330;2022-12-24T06:17:39;25.35;;;3.55;;
62997;SDS011;55949;52.590;7.330;2022-12-24T06:18:40;25.80;;;3.92;;
62997;SDS011;55949;52.590;7.330;2022-12-24T06:19:41;18.63;;;3.88;;
62997;SDS011;55949;52.590;7.330;2022-12-24T06:20:41;23.67;;;3.80;;
62997;SDS011;55949;52.590;7.330;2022-12-24T06:21:42;22.65;;;3.33;;
62997;SDS011;55949;52.590;7.330;2022-12-24T06:22:43;23.10;;;3.60;;
62997;SDS011;55949;52.590;7.330;2022-12-24T06:23:44;26.17;;;3.83;;
62997;SDS011;55949;52.590;7.330;2022-12-24T06:24:44;32.03;;;3.88;;
62997;SDS011;55949;52.590;7.330;2022-12-24T06:25:47;13.18;;;2.42;;
62997;SDS011;55949;52.590;7.330;2022-12-24T06:26:48;13.50;;;2.45;;
62997;SDS011;55949;52.590;7.330;2022-12-24T06:27:48;18.80;;;2.80;;
62997;SDS011;55949;52.590;7.330;2022-12-24T06:28:49;17.60;;;3.47;;
62997;SDS011;55949;52.590;7.330;2022-12-24T06:29:51;22.35;;;3.60;;
62997;SDS011;55949;52.590;7.330;2022-12-24T06:30:52;27.75;;;3.58;;
62997;SDS011;55949;52.590;7.330;2022-12-24T06:31:52;22.20;;;4.18;;
62997;SDS011;55949;52.590;7.330;2022-12-24T06:32:53;24.70;;;3.80;;
62997;SDS011;55949;52.590;7.330;2022-12-24T06:33:54;19.75;;;3.53;;
62997;SDS011;55949;52.590;7.330;2022-12-24T06:34:54;22.35;;;3.85;;
62997;SDS011;55949;52.590;7.330;2022-12-24T06:35:55;16.73;;;2.70;;
62997;SDS011;55949;52.590;7.330;2022-12-24T06:36:56;20.20;;;3.83;;
62997;SDS011;55949;52.590;7.330;2022-12-24T06:37:57;21.75;;;3.50;;
62997;SDS011;55949;52.590;7.330;2022-12-24T06:38:58;20.13;;;3.55;;
62997;SDS011;55949;52.590;7.330;2022-12-24T06:39:59;22.45;;;4.07;;
62997;SDS011;55949;52.590;7.330;2022-12-24T06:41:03;24.35;;;4.30;;
62997;SDS011;55949;52.590;7.330;2022-12-24T06:42:05;18.40;;;3.90;;
62997;SDS011;55949;52.590;7.330;2022-12-24T06:43:06;14.50;;;3.60;;
62997;SDS011;55949;52.590;7.330;2022-12-24T06:44:07;19.20;;;3.63;;